createdAt,value
2023-03-06T00:02:21.978Z,94757.81
2023-03-06T00:04:49.297Z,94756.75
2023-03-06T00:07:16.455Z,94764.38
2023-03-06T00:09:43.680Z,94757.09
2023-03-06T00:12:11.037Z,94750.88
2023-03-06T00:14:39.697Z,94747.16
2023-03-06T00:17:06.797Z,94746.94
2023-03-06T00:19:33.960Z,94751.75
2023-03-06T00:22:01.221Z,94747.72
2023-03-06T00:24:28.397Z,94748.56
2023-03-06T00:26:55.658Z,94749.81
2023-03-06T00:29:22.817Z,94745.22
2023-03-06T00:31:51.515Z,94742.00
2023-03-06T00:34:18.718Z,94743.59
2023-03-06T00:36:45.915Z,94742.91
2023-03-06T00:39:13.095Z,94735.63
2023-03-06T00:41:40.194Z,94735.41
2023-03-06T00:44:07.814Z,94738.38
2023-03-06T00:46:35.083Z,94742.75
2023-03-06T00:49:03.754Z,94737.59
2023-03-06T00:51:30.854Z,94744.41
2023-03-06T00:53:57.973Z,94737.78
2023-03-06T00:56:25.202Z,94738.78
2023-03-06T00:58:52.374Z,94736.75
2023-03-06T01:01:19.645Z,94734.66
2023-03-06T01:03:47.034Z,94725.53
2023-03-06T01:06:15.628Z,94730.94
2023-03-06T01:08:42.728Z,94733.91
2023-03-06T01:11:09.948Z,94731.09
2023-03-06T01:13:37.047Z,94718.66
2023-03-06T01:16:09.265Z,94723.03
2023-03-06T01:18:36.904Z,94712.69
2023-03-06T01:21:05.411Z,94715.34
2023-03-06T01:23:34.285Z,94716.16
2023-03-06T01:26:01.806Z,94716.13
2023-03-06T01:28:29.666Z,94712.06
2023-03-06T01:30:57.042Z,94704.28
2023-03-06T01:33:24.323Z,94703.88
2023-03-06T01:35:51.543Z,94701.13
2023-03-06T01:38:19.509Z,94702.50
2023-03-06T01:40:48.128Z,94695.69
2023-03-06T01:43:27.408Z,94692.97
2023-03-06T01:46:28.674Z,94686.38
2023-03-06T01:49:01.024Z,94691.66
2023-03-06T01:51:33.735Z,94684.22
2023-03-06T01:54:05.970Z,94678.47
2023-03-06T01:56:35.900Z,94677.44
2023-03-06T01:59:04.351Z,94671.44
2023-03-06T02:01:33.433Z,94675.16
2023-03-06T02:04:02.056Z,94669.19
2023-03-06T02:06:29.671Z,94676.16
2023-03-06T02:08:57.110Z,94674.59
2023-03-06T02:11:25.617Z,94668.56
2023-03-06T02:13:55.292Z,94671.78
2023-03-06T02:16:27.798Z,94676.81
2023-03-06T02:18:56.476Z,94666.59
2023-03-06T02:21:27.580Z,94664.81
2023-03-06T02:24:13.512Z,94674.44
2023-03-06T02:26:44.593Z,94670.81
2023-03-06T02:29:12.174Z,94666.59
2023-03-06T02:31:39.274Z,94678.00
2023-03-06T02:34:28.676Z,94662.81
2023-03-06T02:37:02.413Z,94658.34
2023-03-06T02:39:34.397Z,94653.19
2023-03-06T02:42:02.997Z,94648.63
2023-03-06T02:44:31.582Z,94642.38
2023-03-06T02:46:58.803Z,94643.91
2023-03-06T02:49:26.593Z,94647.25
2023-03-06T02:51:53.974Z,94644.34
2023-03-06T02:54:21.100Z,94639.09
2023-03-06T02:56:48.284Z,94638.28
2023-03-06T02:59:16.920Z,94631.59
2023-03-06T03:01:44.076Z,94631.28
2023-03-06T03:04:11.479Z,94629.91
2023-03-06T03:06:38.666Z,94621.34
2023-03-06T03:09:05.782Z,94622.56
2023-03-06T03:11:33.064Z,94623.25
2023-03-06T03:14:00.244Z,94621.69
2023-03-06T03:16:28.789Z,94629.31
2023-03-06T03:18:55.923Z,94624.28
2023-03-06T03:21:23.106Z,94628.09
2023-03-06T03:23:50.419Z,94630.50
2023-03-06T03:26:20.348Z,94625.28
2023-03-06T03:28:47.487Z,94626.50
2023-03-06T03:31:15.129Z,94626.09
2023-03-06T03:33:43.692Z,94626.69
2023-03-06T03:36:10.955Z,94630.09
2023-03-06T03:38:38.252Z,94626.09
2023-03-06T03:41:06.091Z,94627.09
2023-03-06T03:43:33.395Z,94619.66
2023-03-06T03:46:00.874Z,94620.47
2023-03-06T03:48:28.376Z,94612.66
2023-03-06T03:51:04.716Z,94608.03
2023-03-06T03:53:31.858Z,94611.88
2023-03-06T03:55:58.962Z,94611.88
2023-03-06T03:58:26.198Z,94609.84
2023-03-06T04:00:53.395Z,94610.88
2023-03-06T04:03:20.533Z,94604.06
2023-03-06T04:05:48.292Z,94610.47
2023-03-06T04:08:16.924Z,94606.03
2023-03-06T04:10:44.128Z,94604.03
2023-03-06T04:13:11.289Z,94601.00
2023-03-06T04:15:38.438Z,94598.44
2023-03-06T04:18:05.738Z,94608.84
2023-03-06T04:20:32.854Z,94599.25
2023-03-06T04:23:00.014Z,94602.03
2023-03-06T04:25:28.643Z,94602.22
2023-03-06T04:27:56.935Z,94603.47
2023-03-06T04:30:24.149Z,94605.25
2023-03-06T04:32:51.438Z,94606.84
2023-03-06T04:35:18.997Z,94602.88
2023-03-06T04:37:46.252Z,94600.44
2023-03-06T04:40:19.513Z,94593.06
2023-03-06T04:42:48.870Z,94595.66
2023-03-06T04:45:16.848Z,94592.25
2023-03-06T04:47:44.018Z,94595.22
2023-03-06T04:50:13.158Z,94594.44
2023-03-06T04:52:40.285Z,94603.84
2023-03-06T04:55:09.139Z,94598.44
2023-03-06T04:57:36.598Z,94597.25
2023-03-06T05:00:09.000Z,94594.06
2023-03-06T05:02:36.705Z,94595.25
2023-03-06T05:05:05.126Z,94596.66
2023-03-06T05:07:32.272Z,94593.06
2023-03-06T05:09:59.506Z,94593.81
2023-03-06T05:12:26.969Z,94588.44
2023-03-06T05:14:54.431Z,94599.66
2023-03-06T05:17:23.051Z,94592.03
2023-03-06T05:19:50.213Z,94590.03
2023-03-06T05:22:17.422Z,94594.84
2023-03-06T05:24:44.564Z,94594.47
2023-03-06T05:27:11.893Z,94595.03
2023-03-06T05:29:39.128Z,94596.06
2023-03-06T05:32:06.921Z,94608.88
2023-03-06T05:34:35.810Z,94605.66
2023-03-06T05:37:03.052Z,94607.69
2023-03-06T05:39:30.874Z,94606.06
2023-03-06T05:41:57.954Z,94612.09
2023-03-06T05:44:25.035Z,94608.88
2023-03-06T05:46:52.118Z,94608.47
2023-03-06T05:49:19.199Z,94604.25
2023-03-06T05:51:47.799Z,94604.84
2023-03-06T05:54:15.058Z,94608.88
2023-03-06T05:56:42.953Z,94599.06
2023-03-06T05:59:10.334Z,94605.66
2023-03-06T06:01:37.525Z,94592.06
2023-03-06T06:04:04.905Z,94591.06
2023-03-06T06:06:32.048Z,94602.25
2023-03-06T06:09:00.714Z,94607.25
2023-03-06T06:11:27.990Z,94604.84
2023-03-06T06:13:55.210Z,94602.88
2023-03-06T06:16:22.724Z,94601.88
2023-03-06T06:18:49.922Z,94608.66
2023-03-06T06:21:17.085Z,94602.06
2023-03-06T06:23:44.250Z,94609.28
2023-03-06T06:26:12.836Z,94607.25
2023-03-06T06:28:39.942Z,94609.88
2023-03-06T06:31:11.530Z,94610.25
2023-03-06T06:33:38.790Z,94608.88
2023-03-06T06:36:14.588Z,94606.47
2023-03-06T06:38:41.913Z,94610.09
2023-03-06T06:41:36.110Z,94609.69
2023-03-06T06:43:59.130Z,94618.69
2023-03-06T06:47:09.594Z,94612.66
2023-03-06T06:49:15.755Z,94622.31
2023-03-06T06:51:42.937Z,94619.91
2023-03-06T06:54:11.305Z,94623.69
2023-03-06T06:56:39.092Z,94626.50
2023-03-06T06:59:16.443Z,94622.91
2023-03-06T07:01:45.207Z,94628.72
2023-03-06T07:04:13.852Z,94630.28
2023-03-06T07:06:41.746Z,94626.69
2023-03-06T07:09:09.297Z,94628.97
2023-03-06T07:11:38.131Z,94634.31
2023-03-06T07:14:05.706Z,94624.44
2023-03-06T07:16:34.362Z,94622.38
2023-03-06T07:19:01.583Z,94621.91
2023-03-06T07:21:28.790Z,94627.81
2023-03-06T07:23:56.218Z,94616.03
2023-03-06T07:26:23.374Z,94613.91
2023-03-06T07:28:52.835Z,94615.59
2023-03-06T07:31:22.127Z,94616.44
2023-03-06T07:33:51.821Z,94613.06
2023-03-06T07:36:19.517Z,94613.47
2023-03-06T07:38:46.831Z,94618.38
2023-03-06T07:41:14.849Z,94624.16
2023-03-06T07:43:43.184Z,94628.19
2023-03-06T07:46:11.733Z,94625.47
2023-03-06T07:48:39.958Z,94626.78
2023-03-06T07:51:13.546Z,94634.56
2023-03-06T07:53:40.739Z,94628.72
2023-03-06T07:56:09.154Z,94623.13
2023-03-06T07:58:37.327Z,94628.75
2023-03-06T08:01:06.088Z,94634.72
2023-03-06T08:03:34.007Z,94629.44
2023-03-06T08:06:12.077Z,94624.38
2023-03-06T08:08:41.981Z,94632.38
2023-03-06T08:11:12.046Z,94631.28
2023-03-06T08:13:39.985Z,94627.97
2023-03-06T08:16:08.282Z,94625.78
2023-03-06T08:18:36.764Z,94629.66
2023-03-06T08:21:06.136Z,94633.06
2023-03-06T08:23:35.739Z,94633.16
2023-03-06T08:26:05.533Z,94641.72
2023-03-06T08:28:33.004Z,94626.47
2023-03-06T08:31:09.083Z,94631.50
2023-03-06T08:33:37.248Z,94635.06
2023-03-06T08:36:05.199Z,94637.09
2023-03-06T08:38:32.465Z,94634.41
2023-03-06T08:41:01.198Z,94650.56
2023-03-06T08:43:28.370Z,94640.00
2023-03-06T08:45:57.326Z,94645.63
2023-03-06T08:48:25.105Z,94644.03
2023-03-06T08:50:52.664Z,94647.41
2023-03-06T08:53:22.707Z,94646.03
2023-03-06T08:55:55.128Z,94649.88
2023-03-06T08:58:23.723Z,94645.00
2023-03-06T09:00:51.056Z,94647.75
2023-03-06T09:03:18.571Z,94643.25
2023-03-06T09:05:45.833Z,94627.72
2023-03-06T09:08:13.071Z,94631.72
2023-03-06T09:10:40.333Z,94642.13
2023-03-06T09:13:07.669Z,94640.38
2023-03-06T09:15:36.608Z,94635.50
2023-03-06T09:18:03.985Z,94632.59
2023-03-06T09:20:31.291Z,94641.63
2023-03-06T09:22:58.809Z,94635.06
2023-03-06T09:25:25.962Z,94637.31
2023-03-06T09:28:08.676Z,94637.44
2023-03-06T09:30:40.527Z,94648.31
2023-03-06T09:33:07.880Z,94642.75
2023-03-06T09:35:35.224Z,94641.63
2023-03-06T09:38:02.449Z,94639.03
2023-03-06T09:40:47.134Z,94643.69
2023-03-06T09:43:26.027Z,94639.63
2023-03-06T09:45:55.000Z,94636.47
2023-03-06T09:48:35.757Z,94633.63
2023-03-06T09:51:12.606Z,94631.31
2023-03-06T09:53:56.676Z,94634.53
2023-03-06T09:56:27.816Z,94633.34
2023-03-06T09:59:07.793Z,94631.63
2023-03-06T10:01:42.312Z,94628.38
2023-03-06T10:04:28.923Z,94631.19
2023-03-06T10:07:01.514Z,94634.47
2023-03-06T10:09:45.192Z,94633.06
2023-03-06T10:12:24.953Z,94620.69
2023-03-06T10:15:14.086Z,94624.59
2023-03-06T10:17:44.532Z,94623.25
2023-03-06T10:20:20.783Z,94617.94
2023-03-06T10:23:13.825Z,94615.34
2023-03-06T10:25:50.923Z,94617.84
2023-03-06T10:28:23.501Z,94614.75
2023-03-06T10:31:01.561Z,94609.38
2023-03-06T10:33:49.469Z,94608.28
2023-03-06T10:36:19.541Z,94603.56
2023-03-06T10:38:48.031Z,94610.72
2023-03-06T10:41:25.877Z,94614.19
2023-03-06T10:44:19.386Z,94614.38
2023-03-06T10:46:49.915Z,94605.91
2023-03-06T10:49:32.612Z,94601.56
2023-03-06T10:52:03.402Z,94599.22
2023-03-06T10:54:33.773Z,94591.97
2023-03-06T10:57:19.814Z,94600.94
2023-03-06T10:59:53.013Z,94596.34
2023-03-06T11:02:27.558Z,94587.88
2023-03-06T11:04:59.272Z,94594.59
2023-03-06T11:07:28.529Z,94586.50
2023-03-06T11:10:16.474Z,94589.03
2023-03-06T11:12:55.771Z,94587.19
2023-03-06T11:15:24.546Z,94587.75
2023-03-06T11:17:55.891Z,94582.91
2023-03-06T11:20:27.807Z,94584.25
2023-03-06T11:23:07.414Z,94586.09
2023-03-06T11:25:40.988Z,94586.03
2023-03-06T11:28:18.448Z,94578.13
2023-03-06T11:30:49.907Z,94581.34
2023-03-06T11:33:27.529Z,94570.16
2023-03-06T11:36:04.592Z,94572.25
2023-03-06T11:38:40.448Z,94571.81
2023-03-06T11:41:19.140Z,94573.94
2023-03-06T11:43:57.025Z,94562.47
2023-03-06T11:46:29.257Z,94561.72
2023-03-06T11:49:05.086Z,94547.22
2023-03-06T11:51:41.578Z,94551.03
2023-03-06T11:54:13.166Z,94539.34
2023-03-06T11:56:52.845Z,94551.97
2023-03-06T11:59:42.492Z,94545.25
2023-03-06T12:02:29.428Z,94536.56
2023-03-06T12:05:28.405Z,94537.47
2023-03-06T12:08:14.770Z,94530.84
2023-03-06T12:10:51.830Z,94522.22
2023-03-06T12:16:46.238Z,94508.66
2023-03-06T12:19:32.449Z,94517.31
2023-03-06T12:22:20.774Z,94513.41
2023-03-06T12:25:23.709Z,94504.56
2023-03-06T12:28:06.938Z,94498.56
2023-03-06T12:31:01.027Z,94499.22
2023-03-06T12:33:36.089Z,94500.06
2023-03-06T12:36:21.719Z,94494.34
2023-03-06T12:39:03.591Z,94489.16
2023-03-06T12:41:50.637Z,94483.53
2023-03-06T12:44:42.929Z,94483.94
2023-03-06T12:47:12.909Z,94476.38
2023-03-06T12:49:46.874Z,94473.03
2023-03-06T12:52:30.348Z,94477.84
2023-03-06T12:55:01.609Z,94473.72
2023-03-06T12:57:30.477Z,94468.06
2023-03-06T12:59:59.290Z,94463.69
2023-03-06T13:02:55.256Z,94460.47
2023-03-06T13:06:09.454Z,94459.66
2023-03-06T13:09:08.937Z,94459.22
2023-03-06T13:12:11.063Z,94455.63
2023-03-06T13:14:56.654Z,94456.50
2023-03-06T13:17:43.094Z,94455.81
2023-03-06T13:20:35.017Z,94454.00
2023-03-06T13:23:39.476Z,94449.53
2023-03-06T13:26:30.517Z,94444.19
2023-03-06T13:28:58.515Z,94441.63
2023-03-06T13:31:28.350Z,94436.88
2023-03-06T13:34:00.215Z,94444.44
2023-03-06T13:36:30.667Z,94444.56
2023-03-06T13:39:01.388Z,94445.59
2023-03-06T13:41:54.250Z,94444.88
2023-03-06T13:44:45.382Z,94441.00
2023-03-06T13:48:09.684Z,94443.47
2023-03-06T13:50:38.830Z,94437.53
2023-03-06T13:53:35.897Z,94435.41
2023-03-06T13:56:25.721Z,94437.09
2023-03-06T13:59:19.239Z,94439.13
2023-03-06T14:02:01.001Z,94431.16
2023-03-06T14:04:46.135Z,94429.84
2023-03-06T14:07:27.674Z,94420.56
2023-03-06T14:10:09.401Z,94423.19
2023-03-06T14:12:41.056Z,94426.72
2023-03-06T14:15:20.201Z,94431.00
2023-03-06T14:17:56.554Z,94430.28
2023-03-06T14:20:33.689Z,94426.94
2023-03-06T14:23:27.244Z,94420.88
2023-03-06T14:26:11.906Z,94415.53
2023-03-06T14:28:39.114Z,94413.16
2023-03-06T14:31:07.548Z,94419.41
2023-03-06T14:33:43.813Z,94407.91
2023-03-06T14:36:15.035Z,94413.16
2023-03-06T14:38:49.676Z,94417.16
2023-03-06T14:41:24.874Z,94407.34
2023-03-06T14:43:52.515Z,94415.09
2023-03-06T14:46:21.882Z,94402.50
2023-03-06T14:48:49.995Z,94411.47
2023-03-06T14:51:21.071Z,94403.94
2023-03-06T14:53:52.917Z,94397.38
2023-03-06T14:56:23.536Z,94398.00
2023-03-06T14:58:56.259Z,94394.81
2023-03-06T15:01:30.352Z,94394.81
2023-03-06T15:04:00.786Z,94396.34
2023-03-06T15:06:34.674Z,94393.06
2023-03-06T15:09:09.615Z,94396.97
2023-03-06T15:11:55.258Z,94391.81
2023-03-06T15:14:31.880Z,94397.22
2023-03-06T15:17:23.890Z,94390.88
2023-03-06T15:19:52.922Z,94389.81
2023-03-06T15:22:28.796Z,94398.13
2023-03-06T15:25:19.515Z,94399.47
2023-03-06T15:27:50.969Z,94393.66
2023-03-06T15:30:28.469Z,94395.34
2023-03-06T15:33:24.329Z,94397.31
2023-03-06T15:35:56.307Z,94397.88
2023-03-06T15:38:30.308Z,94401.78
2023-03-06T15:41:01.838Z,94403.34
2023-03-06T15:43:37.304Z,94407.69
2023-03-06T15:46:14.019Z,94405.78
2023-03-06T15:48:52.761Z,94394.34
2023-03-06T15:51:21.693Z,94403.69
2023-03-06T15:53:50.207Z,94404.56
2023-03-06T15:56:25.057Z,94405.63
2023-03-06T15:58:52.416Z,94404.50
2023-03-06T16:01:19.863Z,94393.03
2023-03-06T16:03:48.116Z,94404.66
2023-03-06T16:06:17.758Z,94402.13
2023-03-06T16:08:45.358Z,94402.69
2023-03-06T16:11:26.007Z,94405.06
2023-03-06T16:13:58.218Z,94405.47
2023-03-06T16:16:32.602Z,94410.56
2023-03-06T16:19:00.420Z,94406.56
2023-03-06T16:21:29.698Z,94408.41
2023-03-06T16:24:02.401Z,94404.97
2023-03-06T16:26:39.046Z,94414.16
2023-03-06T16:29:07.392Z,94416.69
2023-03-06T16:31:34.933Z,94413.75
2023-03-06T16:34:04.576Z,94422.44
2023-03-06T16:36:32.190Z,94419.69
2023-03-06T16:39:00.514Z,94424.41
2023-03-06T16:41:29.531Z,94428.88
2023-03-06T16:43:59.492Z,94419.69
2023-03-06T16:46:26.733Z,94423.88
2023-03-06T16:48:53.935Z,94421.09
2023-03-06T16:51:22.867Z,94423.81
2023-03-06T16:54:13.489Z,94429.69
2023-03-06T16:57:21.834Z,94441.28
2023-03-06T16:59:51.480Z,94428.50
2023-03-06T17:02:18.893Z,94431.16
2023-03-06T17:04:46.458Z,94437.75
2023-03-06T17:07:13.614Z,94434.09
2023-03-06T17:09:40.777Z,94445.34
2023-03-06T17:12:08.814Z,94451.13
2023-03-06T17:14:36.074Z,94457.84
2023-03-06T17:17:04.807Z,94458.78
2023-03-06T17:19:31.962Z,94455.94
2023-03-06T17:21:59.133Z,94463.19
2023-03-06T17:24:26.775Z,94465.72
2023-03-06T17:26:53.974Z,94474.06
2023-03-06T17:29:21.193Z,94478.75
2023-03-06T17:31:48.314Z,94480.94
2023-03-06T17:34:16.956Z,94478.63
2023-03-06T17:36:44.216Z,94483.88
2023-03-06T17:39:11.330Z,94487.41
2023-03-06T17:41:38.788Z,94492.66
2023-03-06T17:44:06.116Z,94494.34
2023-03-06T17:46:33.300Z,94499.47
2023-03-06T17:49:01.134Z,94505.16
2023-03-06T17:51:29.814Z,94512.53
2023-03-06T17:53:57.209Z,94514.59
2023-03-06T17:56:24.407Z,94518.34
2023-03-06T17:58:51.516Z,94525.38
2023-03-06T18:01:21.702Z,94523.88
2023-03-06T18:03:50.764Z,94518.41
2023-03-06T18:06:18.952Z,94520.78
2023-03-06T18:08:47.805Z,94530.09
2023-03-06T18:11:17.004Z,94528.38
2023-03-06T18:13:45.906Z,94524.38
2023-03-06T18:16:15.599Z,94524.19
2023-03-06T18:18:42.917Z,94525.72
2023-03-06T18:21:12.825Z,94527.50
2023-03-06T18:23:41.404Z,94540.63
2023-03-06T18:26:13.046Z,94552.16
2023-03-06T18:28:40.964Z,94549.28
2023-03-06T18:31:15.683Z,94546.94
2023-03-06T18:33:42.989Z,94545.19
2023-03-06T18:36:14.467Z,94549.38
2023-03-06T18:38:42.288Z,94561.31
2023-03-06T18:41:12.733Z,94567.00
2023-03-06T18:43:40.388Z,94562.06
2023-03-06T18:46:08.345Z,94560.25
2023-03-06T18:48:36.048Z,94563.81
2023-03-06T18:51:08.327Z,94566.66
2023-03-06T18:53:36.369Z,94579.84
2023-03-06T18:56:04.565Z,94585.22
2023-03-06T18:58:33.785Z,94582.03
2023-03-06T19:01:06.903Z,94590.50
2023-03-06T19:03:35.072Z,94584.75
2023-03-06T19:06:10.613Z,94575.69
2023-03-06T19:08:39.862Z,94572.91
2023-03-06T19:11:09.101Z,94578.34
2023-03-06T19:13:39.718Z,94570.66
2023-03-06T19:16:08.198Z,94575.34
2023-03-06T19:18:36.019Z,94573.81
2023-03-06T19:21:11.563Z,94580.44
2023-03-06T19:23:38.836Z,94581.00
2023-03-06T19:26:06.879Z,94588.78
2023-03-06T19:28:34.881Z,94600.78
2023-03-06T19:31:10.372Z,94599.78
2023-03-06T19:33:37.668Z,94607.66
2023-03-06T19:36:06.293Z,94613.84
2023-03-06T19:38:33.953Z,94620.28
2023-03-06T19:41:01.193Z,94616.91
2023-03-06T19:43:29.784Z,94630.34
2023-03-06T19:45:57.588Z,94619.13
2023-03-06T19:48:26.330Z,94612.97
2023-03-06T19:50:53.610Z,94616.88
2023-03-06T19:53:20.851Z,94631.16
2023-03-06T19:55:48.057Z,94620.34
2023-03-06T19:58:15.336Z,94620.34
2023-03-06T20:00:42.514Z,94625.22
2023-03-06T20:03:09.618Z,94627.63
2023-03-06T20:05:46.201Z,94626.03
2023-03-06T20:08:13.870Z,94629.31
2023-03-06T20:10:41.030Z,94630.94
2023-03-06T20:13:08.210Z,94625.72
2023-03-06T20:15:35.428Z,94634.56
2023-03-06T20:18:02.613Z,94643.03
2023-03-06T20:20:29.763Z,94636.22
2023-03-06T20:22:58.343Z,94632.81
2023-03-06T20:25:25.593Z,94642.88
2023-03-06T20:27:52.713Z,94637.06
2023-03-06T20:30:19.919Z,94643.34
2023-03-06T20:32:47.691Z,94634.09
2023-03-06T20:35:15.093Z,94644.78
2023-03-06T20:37:42.134Z,94642.75
2023-03-06T20:40:13.217Z,94639.16
2023-03-06T20:42:40.450Z,94646.19
2023-03-06T20:45:09.016Z,94641.56
2023-03-06T20:47:36.192Z,94636.56
2023-03-06T20:50:03.594Z,94632.97
2023-03-06T20:52:30.842Z,94636.97
2023-03-06T20:54:58.160Z,94635.78
2023-03-06T20:57:26.699Z,94635.38
2023-03-06T20:59:53.815Z,94630.19
2023-03-06T21:02:21.111Z,94632.19
2023-03-06T21:04:49.143Z,94633.22
2023-03-06T21:07:16.374Z,94636.44
2023-03-06T21:09:43.564Z,94631.59
2023-03-06T21:12:11.414Z,94643.44
2023-03-06T21:14:40.074Z,94645.88
2023-03-06T21:17:07.236Z,94634.84
2023-03-06T21:19:34.716Z,94636.09
2023-03-06T21:22:02.138Z,94630.06
2023-03-06T21:24:29.358Z,94629.47
2023-03-06T21:26:56.717Z,94633.06
2023-03-06T21:29:24.198Z,94635.72
2023-03-06T21:31:52.974Z,94639.69
2023-03-06T21:34:20.228Z,94635.28
2023-03-06T21:36:47.528Z,94632.09
2023-03-06T21:39:14.840Z,94632.31
2023-03-06T21:41:41.980Z,94623.28
2023-03-06T21:44:09.120Z,94626.28
2023-03-06T21:46:36.301Z,94627.31
2023-03-06T21:49:06.014Z,94627.31
2023-03-06T21:51:34.099Z,94625.50
2023-03-06T21:54:02.086Z,94620.06
2023-03-06T21:56:29.620Z,94619.69
2023-03-06T21:58:57.199Z,94612.06
2023-03-06T22:01:26.860Z,94613.69
2023-03-06T22:03:55.186Z,94616.88
2023-03-06T22:06:25.599Z,94618.88
2023-03-06T22:08:54.646Z,94611.63
2023-03-06T22:11:24.126Z,94604.47
2023-03-06T22:13:52.200Z,94606.84
2023-03-06T22:16:20.079Z,94606.25
2023-03-06T22:18:49.042Z,94602.88
2023-03-06T22:21:19.521Z,94606.66
2023-03-06T22:23:51.239Z,94612.28
2023-03-06T22:26:18.725Z,94614.28
2023-03-06T22:28:46.349Z,94609.25
2023-03-06T22:31:15.822Z,94609.47
2023-03-06T22:33:43.060Z,94613.50
2023-03-06T22:36:12.701Z,94599.66
2023-03-06T22:38:42.451Z,94602.88
2023-03-06T22:41:12.715Z,94604.25
2023-03-06T22:43:39.893Z,94608.88
2023-03-06T22:46:09.676Z,94604.06
2023-03-06T22:48:37.316Z,94610.47
2023-03-06T22:51:06.004Z,94604.88
2023-03-06T22:53:34.101Z,94604.88
2023-03-06T22:56:03.011Z,94612.47
2023-03-06T22:58:34.068Z,94611.50
2023-03-06T23:01:05.463Z,94610.50
2023-03-06T23:03:32.535Z,94600.84
2023-03-06T23:05:59.613Z,94592.28
2023-03-06T23:08:26.819Z,94606.88
2023-03-06T23:10:53.994Z,94595.25
2023-03-06T23:13:21.105Z,94595.25
2023-03-06T23:15:49.672Z,94592.88
2023-03-06T23:18:16.875Z,94601.28
2023-03-06T23:20:45.020Z,94589.44
2023-03-06T23:23:12.481Z,94600.66
2023-03-06T23:25:39.577Z,94594.47
2023-03-06T23:28:06.777Z,94594.06
2023-03-06T23:30:33.949Z,94595.06
2023-03-06T23:33:02.638Z,94598.06
2023-03-06T23:35:29.776Z,94584.84
2023-03-06T23:37:57.924Z,94598.88
2023-03-06T23:40:25.008Z,94589.44
2023-03-06T23:42:52.079Z,94589.88
2023-03-06T23:45:19.335Z,94587.44
2023-03-06T23:47:46.497Z,94583.47
2023-03-06T23:50:15.560Z,94595.66
2023-03-06T23:52:42.879Z,94595.47
2023-03-06T23:55:10.715Z,94590.28
2023-03-06T23:57:38.088Z,94588.06
